sensor_id;sensor_type;location;lat;lon;timestamp;temperature;humidity
44166;DHT22;30476;53.468;9.826;2023-07-20T00:00:44;16.00;99.90
44166;DHT22;30476;53.468;9.826;2023-07-20T00:03:14;16.00;99.90
44166;DHT22;30476;53.468;9.826;2023-07-20T00:05:45;16.00;99.90
44166;DHT22;30476;53.468;9.826;2023-07-20T00:08:11;16.00;99.90
44166;DHT22;30476;53.468;9.826;2023-07-20T00:10:37;16.00;99.90
44166;DHT22;30476;53.468;9.826;2023-07-20T00:13:03;16.00;99.90
44166;DHT22;30476;53.468;9.826;2023-07-20T00:15:28;16.00;99.90
44166;DHT22;30476;53.468;9.826;2023-07-20T00:17:54;16.00;99.90
44166;DHT22;30476;53.468;9.826;2023-07-20T00:20:23;16.00;99.90
44166;DHT22;30476;53.468;9.826;2023-07-20T00:22:49;16.00;99.90
44166;DHT22;30476;53.468;9.826;2023-07-20T00:25:16;16.00;99.90
44166;DHT22;30476;53.468;9.826;2023-07-20T00:27:42;16.00;99.90
44166;DHT22;30476;53.468;9.826;2023-07-20T00:30:08;16.00;99.90
44166;DHT22;30476;53.468;9.826;2023-07-20T00:32:34;16.10;99.90
44166;DHT22;30476;53.468;9.826;2023-07-20T00:35:00;16.10;99.90
44166;DHT22;30476;53.468;9.826;2023-07-20T00:37:26;16.10;99.90
44166;DHT22;30476;53.468;9.826;2023-07-20T00:39:52;16.10;99.90
44166;DHT22;30476;53.468;9.826;2023-07-20T00:42:18;16.10;99.90
44166;DHT22;30476;53.468;9.826;2023-07-20T00:44:43;16.10;99.90
44166;DHT22;30476;53.468;9.826;2023-07-20T00:47:09;16.10;99.90
44166;DHT22;30476;53.468;9.826;2023-07-20T00:49:35;16.10;99.90
44166;DHT22;30476;53.468;9.826;2023-07-20T00:52:02;16.10;99.90
44166;DHT22;30476;53.468;9.826;2023-07-20T00:54:29;16.10;99.90
44166;DHT22;30476;53.468;9.826;2023-07-20T00:56:55;16.20;99.90
44166;DHT22;30476;53.468;9.826;2023-07-20T00:59:21;16.10;99.90
44166;DHT22;30476;53.468;9.826;2023-07-20T01:01:47;16.20;99.90
44166;DHT22;30476;53.468;9.826;2023-07-20T01:04:13;16.20;99.90
44166;DHT22;30476;53.468;9.826;2023-07-20T01:11:57;16.20;99.90
44166;DHT22;30476;53.468;9.826;2023-07-20T01:14:25;16.20;99.90
44166;DHT22;30476;53.468;9.826;2023-07-20T01:16:51;16.20;99.90
44166;DHT22;30476;53.468;9.826;2023-07-20T01:19:20;16.20;99.90
44166;DHT22;30476;53.468;9.826;2023-07-20T01:22:02;16.20;99.90
44166;DHT22;30476;53.468;9.826;2023-07-20T01:25:02;16.20;99.90
44166;DHT22;30476;53.468;9.826;2023-07-20T01:33:31;16.20;99.90
44166;DHT22;30476;53.468;9.826;2023-07-20T01:35:58;16.20;99.90
44166;DHT22;30476;53.468;9.826;2023-07-20T01:38:25;16.20;99.90
44166;DHT22;30476;53.468;9.826;2023-07-20T01:40:51;16.20;99.90
44166;DHT22;30476;53.468;9.826;2023-07-20T01:43:17;16.20;99.90
44166;DHT22;30476;53.468;9.826;2023-07-20T01:45:44;16.20;99.90
44166;DHT22;30476;53.468;9.826;2023-07-20T01:48:10;16.20;99.90
44166;DHT22;30476;53.468;9.826;2023-07-20T01:50:36;16.20;99.90
44166;DHT22;30476;53.468;9.826;2023-07-20T01:53:02;16.20;99.90
44166;DHT22;30476;53.468;9.826;2023-07-20T01:55:27;16.20;99.90
44166;DHT22;30476;53.468;9.826;2023-07-20T01:57:55;16.20;99.90
44166;DHT22;30476;53.468;9.826;2023-07-20T02:00:21;16.30;99.90
44166;DHT22;30476;53.468;9.826;2023-07-20T02:02:50;16.30;99.90
44166;DHT22;30476;53.468;9.826;2023-07-20T02:05:16;16.30;99.90
44166;DHT22;30476;53.468;9.826;2023-07-20T02:07:42;16.30;99.90
44166;DHT22;30476;53.468;9.826;2023-07-20T02:10:09;16.30;99.90
44166;DHT22;30476;53.468;9.826;2023-07-20T02:12:35;16.30;99.90
44166;DHT22;30476;53.468;9.826;2023-07-20T02:15:01;16.20;99.90
44166;DHT22;30476;53.468;9.826;2023-07-20T02:17:27;16.20;99.90
44166;DHT22;30476;53.468;9.826;2023-07-20T02:19:54;16.20;99.90
44166;DHT22;30476;53.468;9.826;2023-07-20T02:22:21;16.20;99.90
44166;DHT22;30476;53.468;9.826;2023-07-20T02:24:47;16.20;99.90
44166;DHT22;30476;53.468;9.826;2023-07-20T02:27:13;16.20;99.90
44166;DHT22;30476;53.468;9.826;2023-07-20T02:29:40;16.30;99.90
44166;DHT22;30476;53.468;9.826;2023-07-20T02:32:07;16.30;99.90
44166;DHT22;30476;53.468;9.826;2023-07-20T02:34:33;16.30;99.90
44166;DHT22;30476;53.468;9.826;2023-07-20T02:36:59;16.30;99.90
44166;DHT22;30476;53.468;9.826;2023-07-20T02:39:29;16.30;99.90
44166;DHT22;30476;53.468;9.826;2023-07-20T02:41:56;16.30;99.90
44166;DHT22;30476;53.468;9.826;2023-07-20T02:44:21;16.30;99.90
44166;DHT22;30476;53.468;9.826;2023-07-20T02:46:47;16.30;99.90
44166;DHT22;30476;53.468;9.826;2023-07-20T02:49:15;16.30;99.90
44166;DHT22;30476;53.468;9.826;2023-07-20T02:51:41;16.30;99.90
44166;DHT22;30476;53.468;9.826;2023-07-20T02:54:07;16.20;99.90
44166;DHT22;30476;53.468;9.826;2023-07-20T02:56:33;16.20;99.90
44166;DHT22;30476;53.468;9.826;2023-07-20T02:59:01;16.20;99.90
44166;DHT22;30476;53.468;9.826;2023-07-20T03:01:27;16.20;99.90
44166;DHT22;30476;53.468;9.826;2023-07-20T03:03:55;16.20;99.90
44166;DHT22;30476;53.468;9.826;2023-07-20T03:06:21;16.20;99.90
44166;DHT22;30476;53.468;9.826;2023-07-20T03:08:47;16.10;99.90
44166;DHT22;30476;53.468;9.826;2023-07-20T03:11:14;16.10;99.90
44166;DHT22;30476;53.468;9.826;2023-07-20T03:13:41;16.10;99.90
44166;DHT22;30476;53.468;9.826;2023-07-20T03:16:08;16.10;99.90
44166;DHT22;30476;53.468;9.826;2023-07-20T03:18:37;16.10;99.90
44166;DHT22;30476;53.468;9.826;2023-07-20T03:21:05;16.10;99.90
44166;DHT22;30476;53.468;9.826;2023-07-20T03:23:31;16.10;99.90
44166;DHT22;30476;53.468;9.826;2023-07-20T03:25:56;16.10;99.90
44166;DHT22;30476;53.468;9.826;2023-07-20T03:28:22;16.10;99.90
44166;DHT22;30476;53.468;9.826;2023-07-20T03:30:57;16.10;99.90
44166;DHT22;30476;53.468;9.826;2023-07-20T03:33:30;16.10;99.90
44166;DHT22;30476;53.468;9.826;2023-07-20T03:35:57;16.10;99.90
44166;DHT22;30476;53.468;9.826;2023-07-20T03:38:23;16.10;99.90
44166;DHT22;30476;53.468;9.826;2023-07-20T03:40:54;16.10;99.90
44166;DHT22;30476;53.468;9.826;2023-07-20T03:43:21;16.10;99.90
44166;DHT22;30476;53.468;9.826;2023-07-20T03:45:47;16.10;99.90
44166;DHT22;30476;53.468;9.826;2023-07-20T03:48:15;16.10;99.90
44166;DHT22;30476;53.468;9.826;2023-07-20T03:50:41;16.20;99.90
44166;DHT22;30476;53.468;9.826;2023-07-20T03:53:07;16.20;99.90
44166;DHT22;30476;53.468;9.826;2023-07-20T03:55:33;16.20;99.90
44166;DHT22;30476;53.468;9.826;2023-07-20T03:57:59;16.20;99.90
44166;DHT22;30476;53.468;9.826;2023-07-20T04:00:24;16.20;99.90
44166;DHT22;30476;53.468;9.826;2023-07-20T04:02:50;16.20;99.90
44166;DHT22;30476;53.468;9.826;2023-07-20T04:05:16;16.20;99.90
44166;DHT22;30476;53.468;9.826;2023-07-20T04:07:42;16.20;99.90
44166;DHT22;30476;53.468;9.826;2023-07-20T04:10:08;16.20;99.90
44166;DHT22;30476;53.468;9.826;2023-07-20T04:12:35;16.20;99.90
44166;DHT22;30476;53.468;9.826;2023-07-20T04:15:01;16.20;99.90
44166;DHT22;30476;53.468;9.826;2023-07-20T04:17:27;16.20;99.90
44166;DHT22;30476;53.468;9.826;2023-07-20T04:19:52;16.20;99.90
44166;DHT22;30476;53.468;9.826;2023-07-20T04:22:18;16.20;99.90
44166;DHT22;30476;53.468;9.826;2023-07-20T04:24:44;16.30;99.90
44166;DHT22;30476;53.468;9.826;2023-07-20T04:27:10;16.20;99.90
44166;DHT22;30476;53.468;9.826;2023-07-20T04:29:35;16.30;99.90
44166;DHT22;30476;53.468;9.826;2023-07-20T04:32:01;16.30;99.90
44166;DHT22;30476;53.468;9.826;2023-07-20T04:34:27;16.30;99.90
44166;DHT22;30476;53.468;9.826;2023-07-20T04:36:52;16.30;99.90
44166;DHT22;30476;53.468;9.826;2023-07-20T04:39:18;16.30;99.90
44166;DHT22;30476;53.468;9.826;2023-07-20T04:41:44;16.30;99.90
44166;DHT22;30476;53.468;9.826;2023-07-20T04:44:10;16.30;99.90
44166;DHT22;30476;53.468;9.826;2023-07-20T04:46:36;16.40;99.90
44166;DHT22;30476;53.468;9.826;2023-07-20T04:49:01;16.40;99.90
44166;DHT22;30476;53.468;9.826;2023-07-20T04:51:27;16.40;99.90
44166;DHT22;30476;53.468;9.826;2023-07-20T04:53:55;16.50;99.90
44166;DHT22;30476;53.468;9.826;2023-07-20T04:56:22;16.40;99.90
44166;DHT22;30476;53.468;9.826;2023-07-20T04:58:48;16.40;99.90
44166;DHT22;30476;53.468;9.826;2023-07-20T05:01:14;16.50;99.90
44166;DHT22;30476;53.468;9.826;2023-07-20T05:03:40;16.50;99.90
44166;DHT22;30476;53.468;9.826;2023-07-20T05:06:06;16.50;99.90
44166;DHT22;30476;53.468;9.826;2023-07-20T05:08:31;16.50;99.90
44166;DHT22;30476;53.468;9.826;2023-07-20T05:10:59;16.50;99.90
44166;DHT22;30476;53.468;9.826;2023-07-20T05:13:24;16.60;99.90
44166;DHT22;30476;53.468;9.826;2023-07-20T05:15:53;16.50;99.90
44166;DHT22;30476;53.468;9.826;2023-07-20T05:18:19;16.60;99.90
44166;DHT22;30476;53.468;9.826;2023-07-20T05:20:50;16.60;99.90
44166;DHT22;30476;53.468;9.826;2023-07-20T05:23:17;16.60;99.90
44166;DHT22;30476;53.468;9.826;2023-07-20T05:25:43;16.70;99.90
44166;DHT22;30476;53.468;9.826;2023-07-20T05:28:09;16.60;99.90
44166;DHT22;30476;53.468;9.826;2023-07-20T05:30:35;16.70;99.90
44166;DHT22;30476;53.468;9.826;2023-07-20T05:33:01;16.70;99.90
44166;DHT22;30476;53.468;9.826;2023-07-20T05:35:27;16.70;99.90
44166;DHT22;30476;53.468;9.826;2023-07-20T05:37:53;16.80;99.90
44166;DHT22;30476;53.468;9.826;2023-07-20T05:40:18;16.80;99.90
44166;DHT22;30476;53.468;9.826;2023-07-20T05:42:45;16.80;99.90
44166;DHT22;30476;53.468;9.826;2023-07-20T05:45:12;16.90;99.90
44166;DHT22;30476;53.468;9.826;2023-07-20T05:47:38;16.90;99.90
44166;DHT22;30476;53.468;9.826;2023-07-20T05:50:04;17.00;99.90
44166;DHT22;30476;53.468;9.826;2023-07-20T05:52:30;17.00;99.90
44166;DHT22;30476;53.468;9.826;2023-07-20T05:54:56;17.10;99.90
44166;DHT22;30476;53.468;9.826;2023-07-20T05:57:21;17.10;99.90
44166;DHT22;30476;53.468;9.826;2023-07-20T05:59:47;17.20;99.90
44166;DHT22;30476;53.468;9.826;2023-07-20T06:02:13;17.30;99.90
44166;DHT22;30476;53.468;9.826;2023-07-20T06:04:39;17.30;99.90
44166;DHT22;30476;53.468;9.826;2023-07-20T06:07:05;17.40;99.90
44166;DHT22;30476;53.468;9.826;2023-07-20T06:09:33;17.50;99.90
44166;DHT22;30476;53.468;9.826;2023-07-20T06:11:59;17.50;99.90
44166;DHT22;30476;53.468;9.826;2023-07-20T06:14:24;17.60;99.90
44166;DHT22;30476;53.468;9.826;2023-07-20T06:16:50;17.60;99.90
44166;DHT22;30476;53.468;9.826;2023-07-20T06:19:16;17.70;99.90
44166;DHT22;30476;53.468;9.826;2023-07-20T06:21:42;17.80;99.90
44166;DHT22;30476;53.468;9.826;2023-07-20T06:24:08;17.80;99.90
44166;DHT22;30476;53.468;9.826;2023-07-20T06:26:34;17.90;99.90
44166;DHT22;30476;53.468;9.826;2023-07-20T06:29:06;17.90;99.90
44166;DHT22;30476;53.468;9.826;2023-07-20T06:31:33;18.00;99.90
44166;DHT22;30476;53.468;9.826;2023-07-20T06:33:59;18.10;99.90
44166;DHT22;30476;53.468;9.826;2023-07-20T06:36:25;18.20;99.90
44166;DHT22;30476;53.468;9.826;2023-07-20T06:38:51;18.20;99.90
44166;DHT22;30476;53.468;9.826;2023-07-20T06:41:17;18.20;99.90
44166;DHT22;30476;53.468;9.826;2023-07-20T06:43:43;18.30;99.90
44166;DHT22;30476;53.468;9.826;2023-07-20T06:46:09;18.30;99.90
44166;DHT22;30476;53.468;9.826;2023-07-20T06:48:34;18.40;99.90
44166;DHT22;30476;53.468;9.826;2023-07-20T06:51:00;18.40;99.90
44166;DHT22;30476;53.468;9.826;2023-07-20T06:53:26;18.50;99.90
44166;DHT22;30476;53.468;9.826;2023-07-20T06:55:52;18.40;99.90
44166;DHT22;30476;53.468;9.826;2023-07-20T06:58:17;18.50;99.90
44166;DHT22;30476;53.468;9.826;2023-07-20T07:00:44;18.60;99.90
44166;DHT22;30476;53.468;9.826;2023-07-20T07:03:10;18.60;99.90
44166;DHT22;30476;53.468;9.826;2023-07-20T07:05:37;18.70;99.90
44166;DHT22;30476;53.468;9.826;2023-07-20T07:08:04;18.80;99.90
44166;DHT22;30476;53.468;9.826;2023-07-20T07:10:30;18.80;99.90
44166;DHT22;30476;53.468;9.826;2023-07-20T07:12:56;18.90;99.90
44166;DHT22;30476;53.468;9.826;2023-07-20T07:15:22;18.90;99.90
44166;DHT22;30476;53.468;9.826;2023-07-20T07:17:48;18.90;99.90
44166;DHT22;30476;53.468;9.826;2023-07-20T07:20:13;18.90;99.90
44166;DHT22;30476;53.468;9.826;2023-07-20T07:22:39;19.00;99.90
44166;DHT22;30476;53.468;9.826;2023-07-20T07:25:05;19.00;99.90
44166;DHT22;30476;53.468;9.826;2023-07-20T07:27:32;19.00;99.90
44166;DHT22;30476;53.468;9.826;2023-07-20T07:29:58;19.10;99.90
44166;DHT22;30476;53.468;9.826;2023-07-20T07:32:24;19.10;99.90
44166;DHT22;30476;53.468;9.826;2023-07-20T07:34:50;19.10;99.90
44166;DHT22;30476;53.468;9.826;2023-07-20T07:37:15;19.00;99.90
44166;DHT22;30476;53.468;9.826;2023-07-20T07:39:42;19.10;99.90
44166;DHT22;30476;53.468;9.826;2023-07-20T07:42:08;19.10;99.90
44166;DHT22;30476;53.468;9.826;2023-07-20T07:44:34;19.20;99.90
44166;DHT22;30476;53.468;9.826;2023-07-20T07:47:00;19.30;99.90
44166;DHT22;30476;53.468;9.826;2023-07-20T07:49:26;19.30;99.90
44166;DHT22;30476;53.468;9.826;2023-07-20T07:51:53;19.30;99.90
44166;DHT22;30476;53.468;9.826;2023-07-20T07:54:19;19.40;99.90
44166;DHT22;30476;53.468;9.826;2023-07-20T07:56:45;19.50;99.90
44166;DHT22;30476;53.468;9.826;2023-07-20T07:59:11;19.50;99.90
44166;DHT22;30476;53.468;9.826;2023-07-20T08:01:36;19.70;99.90
44166;DHT22;30476;53.468;9.826;2023-07-20T08:04:02;19.70;99.90
44166;DHT22;30476;53.468;9.826;2023-07-20T08:06:29;19.80;99.90
44166;DHT22;30476;53.468;9.826;2023-07-20T08:08:55;19.80;99.90
44166;DHT22;30476;53.468;9.826;2023-07-20T08:11:21;19.90;99.90
44166;DHT22;30476;53.468;9.826;2023-07-20T08:13:46;19.90;99.90
44166;DHT22;30476;53.468;9.826;2023-07-20T08:16:12;20.00;99.90
44166;DHT22;30476;53.468;9.826;2023-07-20T08:18:38;20.10;99.90
44166;DHT22;30476;53.468;9.826;2023-07-20T08:21:04;20.10;99.90
44166;DHT22;30476;53.468;9.826;2023-07-20T08:23:29;20.20;99.90
44166;DHT22;30476;53.468;9.826;2023-07-20T08:25:55;20.30;99.90
44166;DHT22;30476;53.468;9.826;2023-07-20T08:28:21;20.40;99.90
44166;DHT22;30476;53.468;9.826;2023-07-20T08:30:48;20.40;99.90
44166;DHT22;30476;53.468;9.826;2023-07-20T08:33:16;20.50;99.90
44166;DHT22;30476;53.468;9.826;2023-07-20T08:35:43;20.60;99.90
44166;DHT22;30476;53.468;9.826;2023-07-20T08:38:09;20.50;99.90
44166;DHT22;30476;53.468;9.826;2023-07-20T08:40:45;20.60;99.90
44166;DHT22;30476;53.468;9.826;2023-07-20T08:43:11;20.60;99.90
44166;DHT22;30476;53.468;9.826;2023-07-20T08:45:39;20.60;99.90
44166;DHT22;30476;53.468;9.826;2023-07-20T08:48:06;20.70;99.90
44166;DHT22;30476;53.468;9.826;2023-07-20T08:50:33;20.90;99.90
44166;DHT22;30476;53.468;9.826;2023-07-20T08:53:00;20.90;99.90
44166;DHT22;30476;53.468;9.826;2023-07-20T08:55:27;20.90;99.90
44166;DHT22;30476;53.468;9.826;2023-07-20T08:57:57;20.90;99.90
44166;DHT22;30476;53.468;9.826;2023-07-20T09:00:24;20.90;99.90
44166;DHT22;30476;53.468;9.826;2023-07-20T09:02:51;21.00;99.90
44166;DHT22;30476;53.468;9.826;2023-07-20T09:05:22;21.00;99.90
44166;DHT22;30476;53.468;9.826;2023-07-20T09:07:48;21.20;99.90
44166;DHT22;30476;53.468;9.826;2023-07-20T09:10:15;21.20;99.90
44166;DHT22;30476;53.468;9.826;2023-07-20T09:12:42;21.30;99.90
44166;DHT22;30476;53.468;9.826;2023-07-20T09:15:09;21.30;99.50
44166;DHT22;30476;53.468;9.826;2023-07-20T09:17:35;21.40;99.80
44166;DHT22;30476;53.468;9.826;2023-07-20T09:20:06;21.50;99.60
44166;DHT22;30476;53.468;9.826;2023-07-20T09:22:37;21.50;98.80
44166;DHT22;30476;53.468;9.826;2023-07-20T09:25:13;21.60;98.80
44166;DHT22;30476;53.468;9.826;2023-07-20T09:27:41;21.80;99.10
44166;DHT22;30476;53.468;9.826;2023-07-20T09:30:08;21.80;98.70
44166;DHT22;30476;53.468;9.826;2023-07-20T09:32:46;21.90;98.60
44166;DHT22;30476;53.468;9.826;2023-07-20T09:35:16;22.00;98.90
44166;DHT22;30476;53.468;9.826;2023-07-20T09:40:20;22.10;98.10
44166;DHT22;30476;53.468;9.826;2023-07-20T09:42:47;22.10;96.90
44166;DHT22;30476;53.468;9.826;2023-07-20T09:45:13;22.10;97.10
44166;DHT22;30476;53.468;9.826;2023-07-20T09:47:40;22.00;97.60
44166;DHT22;30476;53.468;9.826;2023-07-20T09:50:07;22.00;97.80
44166;DHT22;30476;53.468;9.826;2023-07-20T09:52:40;21.80;97.70
44166;DHT22;30476;53.468;9.826;2023-07-20T09:55:07;21.70;98.60
44166;DHT22;30476;53.468;9.826;2023-07-20T09:57:34;21.60;98.70
44166;DHT22;30476;53.468;9.826;2023-07-20T10:00:04;21.70;98.80
44166;DHT22;30476;53.468;9.826;2023-07-20T10:02:37;21.60;99.30
44166;DHT22;30476;53.468;9.826;2023-07-20T10:05:08;21.80;98.70
44166;DHT22;30476;53.468;9.826;2023-07-20T10:07:36;21.90;98.20
44166;DHT22;30476;53.468;9.826;2023-07-20T10:10:05;22.10;98.70
44166;DHT22;30476;53.468;9.826;2023-07-20T10:12:33;22.30;98.50
44166;DHT22;30476;53.468;9.826;2023-07-20T10:15:11;22.40;98.70
44166;DHT22;30476;53.468;9.826;2023-07-20T10:17:47;22.60;95.90
44166;DHT22;30476;53.468;9.826;2023-07-20T10:20:16;22.70;96.30
44166;DHT22;30476;53.468;9.826;2023-07-20T10:22:44;22.80;96.50
44166;DHT22;30476;53.468;9.826;2023-07-20T10:25:11;22.90;96.50
44166;DHT22;30476;53.468;9.826;2023-07-20T10:27:38;22.90;96.50
44166;DHT22;30476;53.468;9.826;2023-07-20T10:30:05;22.90;96.30
44166;DHT22;30476;53.468;9.826;2023-07-20T10:32:31;23.00;96.60
44166;DHT22;30476;53.468;9.826;2023-07-20T10:34:57;23.00;96.70
44166;DHT22;30476;53.468;9.826;2023-07-20T10:37:54;23.00;95.40
44166;DHT22;30476;53.468;9.826;2023-07-20T10:40:27;23.00;96.40
44166;DHT22;30476;53.468;9.826;2023-07-20T10:43:07;23.10;95.50
44166;DHT22;30476;53.468;9.826;2023-07-20T10:45:52;23.20;96.30
44166;DHT22;30476;53.468;9.826;2023-07-20T10:48:20;23.40;95.40
44166;DHT22;30476;53.468;9.826;2023-07-20T10:51:13;23.60;95.50
44166;DHT22;30476;53.468;9.826;2023-07-20T10:53:42;23.90;94.20
44166;DHT22;30476;53.468;9.826;2023-07-20T10:56:11;24.00;95.10
44166;DHT22;30476;53.468;9.826;2023-07-20T10:58:37;24.10;94.00
44166;DHT22;30476;53.468;9.826;2023-07-20T11:01:04;24.30;95.50
44166;DHT22;30476;53.468;9.826;2023-07-20T11:03:37;24.40;94.30
44166;DHT22;30476;53.468;9.826;2023-07-20T11:08:55;24.10;97.10
44166;DHT22;30476;53.468;9.826;2023-07-20T11:11:27;23.70;97.20
44166;DHT22;30476;53.468;9.826;2023-07-20T11:14:22;23.30;97.10
44166;DHT22;30476;53.468;9.826;2023-07-20T11:16:50;22.60;98.20
44166;DHT22;30476;53.468;9.826;2023-07-20T11:19:23;22.10;99.50
44166;DHT22;30476;53.468;9.826;2023-07-20T11:24:17;21.50;99.90
44166;DHT22;30476;53.468;9.826;2023-07-20T11:27:02;21.30;99.90
44166;DHT22;30476;53.468;9.826;2023-07-20T11:29:28;21.20;99.90
44166;DHT22;30476;53.468;9.826;2023-07-20T11:31:54;21.10;99.90
44166;DHT22;30476;53.468;9.826;2023-07-20T11:34:20;21.10;99.90
44166;DHT22;30476;53.468;9.826;2023-07-20T11:36:48;21.20;99.90
44166;DHT22;30476;53.468;9.826;2023-07-20T11:39:18;21.30;99.90
44166;DHT22;30476;53.468;9.826;2023-07-20T11:41:49;21.40;99.90
44166;DHT22;30476;53.468;9.826;2023-07-20T11:44:23;21.70;99.90
44166;DHT22;30476;53.468;9.826;2023-07-20T11:47:09;21.90;99.90
44166;DHT22;30476;53.468;9.826;2023-07-20T11:49:37;22.20;99.90
44166;DHT22;30476;53.468;9.826;2023-07-20T11:52:07;22.40;99.90
44166;DHT22;30476;53.468;9.826;2023-07-20T11:54:34;22.60;99.90
44166;DHT22;30476;53.468;9.826;2023-07-20T11:57:02;22.80;99.90
44166;DHT22;30476;53.468;9.826;2023-07-20T11:59:27;22.90;99.90
44166;DHT22;30476;53.468;9.826;2023-07-20T12:01:53;23.00;99.90
44166;DHT22;30476;53.468;9.826;2023-07-20T12:04:20;23.00;99.90
44166;DHT22;30476;53.468;9.826;2023-07-20T12:06:48;23.00;99.90
44166;DHT22;30476;53.468;9.826;2023-07-20T12:09:14;22.90;99.90
44166;DHT22;30476;53.468;9.826;2023-07-20T12:11:43;22.90;99.90
44166;DHT22;30476;53.468;9.826;2023-07-20T12:14:10;22.90;99.90
44166;DHT22;30476;53.468;9.826;2023-07-20T12:16:37;22.90;99.90
44166;DHT22;30476;53.468;9.826;2023-07-20T12:19:06;23.00;99.60
44166;DHT22;30476;53.468;9.826;2023-07-20T12:21:33;22.90;99.80
44166;DHT22;30476;53.468;9.826;2023-07-20T12:23:59;22.80;98.40
44166;DHT22;30476;53.468;9.826;2023-07-20T12:26:26;22.60;96.20
44166;DHT22;30476;53.468;9.826;2023-07-20T12:28:54;22.40;95.40
44166;DHT22;30476;53.468;9.826;2023-07-20T12:31:21;22.20;95.30
44166;DHT22;30476;53.468;9.826;2023-07-20T12:33:49;21.90;95.30
44166;DHT22;30476;53.468;9.826;2023-07-20T12:36:15;21.80;95.40
44166;DHT22;30476;53.468;9.826;2023-07-20T12:38:41;21.60;96.40
44166;DHT22;30476;53.468;9.826;2023-07-20T12:41:09;21.50;97.20
44166;DHT22;30476;53.468;9.826;2023-07-20T12:43:35;21.50;97.60
44166;DHT22;30476;53.468;9.826;2023-07-20T12:46:01;21.50;97.90
44166;DHT22;30476;53.468;9.826;2023-07-20T12:48:27;21.50;98.30
44166;DHT22;30476;53.468;9.826;2023-07-20T12:50:53;21.50;99.90
44166;DHT22;30476;53.468;9.826;2023-07-20T12:53:18;21.60;99.90
44166;DHT22;30476;53.468;9.826;2023-07-20T12:55:44;21.80;99.90
44166;DHT22;30476;53.468;9.826;2023-07-20T12:58:11;22.00;99.90
44166;DHT22;30476;53.468;9.826;2023-07-20T13:00:37;22.20;99.90
44166;DHT22;30476;53.468;9.826;2023-07-20T13:03:03;22.50;99.90
44166;DHT22;30476;53.468;9.826;2023-07-20T13:05:31;22.70;99.70
44166;DHT22;30476;53.468;9.826;2023-07-20T13:07:57;22.90;99.90
44166;DHT22;30476;53.468;9.826;2023-07-20T13:10:24;23.10;97.90
44166;DHT22;30476;53.468;9.826;2023-07-20T13:12:50;23.20;95.90
44166;DHT22;30476;53.468;9.826;2023-07-20T13:15:17;23.20;95.90
44166;DHT22;30476;53.468;9.826;2023-07-20T13:17:43;23.30;95.60
44166;DHT22;30476;53.468;9.826;2023-07-20T13:20:10;23.40;94.30
44166;DHT22;30476;53.468;9.826;2023-07-20T13:22:37;23.40;94.50
44166;DHT22;30476;53.468;9.826;2023-07-20T13:25:03;23.30;93.90
44166;DHT22;30476;53.468;9.826;2023-07-20T13:27:29;23.20;94.20
44166;DHT22;30476;53.468;9.826;2023-07-20T13:29:58;23.10;94.70
44166;DHT22;30476;53.468;9.826;2023-07-20T13:32:24;23.00;94.50
44166;DHT22;30476;53.468;9.826;2023-07-20T13:34:50;23.00;96.30
44166;DHT22;30476;53.468;9.826;2023-07-20T13:37:15;23.20;96.00
44166;DHT22;30476;53.468;9.826;2023-07-20T13:39:41;23.30;94.80
44166;DHT22;30476;53.468;9.826;2023-07-20T13:42:07;23.40;95.60
44166;DHT22;30476;53.468;9.826;2023-07-20T13:44:35;23.50;94.70
44166;DHT22;30476;53.468;9.826;2023-07-20T13:47:01;23.50;94.60
44166;DHT22;30476;53.468;9.826;2023-07-20T13:49:27;23.50;93.70
44166;DHT22;30476;53.468;9.826;2023-07-20T13:51:53;23.40;93.90
44166;DHT22;30476;53.468;9.826;2023-07-20T13:54:19;23.50;93.20
44166;DHT22;30476;53.468;9.826;2023-07-20T13:56:44;23.40;93.50
44166;DHT22;30476;53.468;9.826;2023-07-20T13:59:10;23.50;93.70
44166;DHT22;30476;53.468;9.826;2023-07-20T14:01:36;23.50;94.00
44166;DHT22;30476;53.468;9.826;2023-07-20T14:04:02;23.50;94.70
44166;DHT22;30476;53.468;9.826;2023-07-20T14:06:30;23.60;93.90
44166;DHT22;30476;53.468;9.826;2023-07-20T14:08:56;23.60;93.90
44166;DHT22;30476;53.468;9.826;2023-07-20T14:11:23;23.60;93.50
44166;DHT22;30476;53.468;9.826;2023-07-20T14:13:50;23.60;93.70
44166;DHT22;30476;53.468;9.826;2023-07-20T14:16:16;23.60;93.30
44166;DHT22;30476;53.468;9.826;2023-07-20T14:18:42;23.70;92.90
44166;DHT22;30476;53.468;9.826;2023-07-20T14:21:08;23.60;92.20
44166;DHT22;30476;53.468;9.826;2023-07-20T14:23:33;23.60;93.10
44166;DHT22;30476;53.468;9.826;2023-07-20T14:25:59;23.60;92.90
44166;DHT22;30476;53.468;9.826;2023-07-20T14:28:25;23.50;92.90
44166;DHT22;30476;53.468;9.826;2023-07-20T14:30:51;23.50;92.90
44166;DHT22;30476;53.468;9.826;2023-07-20T14:33:17;23.50;93.20
44166;DHT22;30476;53.468;9.826;2023-07-20T14:35:42;23.50;92.70
44166;DHT22;30476;53.468;9.826;2023-07-20T14:38:08;23.40;92.20
44166;DHT22;30476;53.468;9.826;2023-07-20T14:40:34;23.40;91.60
44166;DHT22;30476;53.468;9.826;2023-07-20T14:43:00;23.30;91.50
44166;DHT22;30476;53.468;9.826;2023-07-20T14:45:28;23.20;91.30
44166;DHT22;30476;53.468;9.826;2023-07-20T14:47:54;23.10;92.10
44166;DHT22;30476;53.468;9.826;2023-07-20T14:50:20;23.10;92.50
44166;DHT22;30476;53.468;9.826;2023-07-20T14:52:47;23.10;92.50
44166;DHT22;30476;53.468;9.826;2023-07-20T14:55:13;23.10;92.30
44166;DHT22;30476;53.468;9.826;2023-07-20T14:57:39;23.10;92.10
44166;DHT22;30476;53.468;9.826;2023-07-20T15:00:05;23.10;92.20
44166;DHT22;30476;53.468;9.826;2023-07-20T15:02:34;23.10;91.40
44166;DHT22;30476;53.468;9.826;2023-07-20T15:04:59;22.90;90.70
44166;DHT22;30476;53.468;9.826;2023-07-20T15:07:25;23.00;91.20
44166;DHT22;30476;53.468;9.826;2023-07-20T15:09:51;23.00;91.60
44166;DHT22;30476;53.468;9.826;2023-07-20T15:12:17;23.00;91.20
44166;DHT22;30476;53.468;9.826;2023-07-20T15:14:43;23.00;91.50
44166;DHT22;30476;53.468;9.826;2023-07-20T15:17:10;23.00;92.00
44166;DHT22;30476;53.468;9.826;2023-07-20T15:19:36;23.00;91.90
44166;DHT22;30476;53.468;9.826;2023-07-20T15:22:03;23.00;91.40
44166;DHT22;30476;53.468;9.826;2023-07-20T15:24:30;22.90;91.30
44166;DHT22;30476;53.468;9.826;2023-07-20T15:26:56;22.80;90.90
44166;DHT22;30476;53.468;9.826;2023-07-20T15:29:23;22.70;91.40
44166;DHT22;30476;53.468;9.826;2023-07-20T15:31:49;22.70;92.00
44166;DHT22;30476;53.468;9.826;2023-07-20T15:34:15;22.70;92.70
44166;DHT22;30476;53.468;9.826;2023-07-20T15:36:41;22.60;92.50
44166;DHT22;30476;53.468;9.826;2023-07-20T15:39:08;22.60;92.80
44166;DHT22;30476;53.468;9.826;2023-07-20T15:41:33;22.60;92.70
44166;DHT22;30476;53.468;9.826;2023-07-20T15:44:00;22.60;93.00
44166;DHT22;30476;53.468;9.826;2023-07-20T15:49:04;22.30;91.60
44166;DHT22;30476;53.468;9.826;2023-07-20T15:51:30;22.30;92.00